sensor_id;sensor_type;location;lat;lon;timestamp;temperature;humidity
5150;DHT22;2593;52.466;13.436;2022-07-10T00:02:09;15.30;48.80
5150;DHT22;2593;52.466;13.436;2022-07-10T00:04:34;15.30;74.80
5150;DHT22;2593;52.466;13.436;2022-07-10T00:07:00;15.30;71.80
5150;DHT22;2593;52.466;13.436;2022-07-10T00:09:27;15.20;69.70
5150;DHT22;2593;52.466;13.436;2022-07-10T00:11:53;15.20;80.00
5150;DHT22;2593;52.466;13.436;2022-07-10T00:14:19;15.20;82.00
5150;DHT22;2593;52.466;13.436;2022-07-10T00:16:45;15.20;83.00
5150;DHT22;2593;52.466;13.436;2022-07-10T00:19:11;15.30;84.80
5150;DHT22;2593;52.466;13.436;2022-07-10T00:21:37;15.30;92.90
5150;DHT22;2593;52.466;13.436;2022-07-10T00:24:02;15.30;90.20
5150;DHT22;2593;52.466;13.436;2022-07-10T00:26:28;15.40;87.10
5150;DHT22;2593;52.466;13.436;2022-07-10T00:28:54;15.40;81.00
5150;DHT22;2593;52.466;13.436;2022-07-10T00:31:20;15.40;90.30
5150;DHT22;2593;52.466;13.436;2022-07-10T00:33:46;15.50;68.80
5150;DHT22;2593;52.466;13.436;2022-07-10T00:36:11;15.50;63.00
5150;DHT22;2593;52.466;13.436;2022-07-10T00:38:37;15.50;50.20
5150;DHT22;2593;52.466;13.436;2022-07-10T00:41:02;15.40;63.20
5150;DHT22;2593;52.466;13.436;2022-07-10T00:43:28;15.50;64.20
5150;DHT22;2593;52.466;13.436;2022-07-10T00:45:54;15.50;49.70
5150;DHT22;2593;52.466;13.436;2022-07-10T00:48:19;15.50;57.70
5150;DHT22;2593;52.466;13.436;2022-07-10T00:50:45;15.50;53.90
5150;DHT22;2593;52.466;13.436;2022-07-10T00:53:13;15.50;55.40
5150;DHT22;2593;52.466;13.436;2022-07-10T00:55:39;15.50;42.40
5150;DHT22;2593;52.466;13.436;2022-07-10T00:58:10;15.50;38.20
5150;DHT22;2593;52.466;13.436;2022-07-10T01:00:36;15.40;37.70
5150;DHT22;2593;52.466;13.436;2022-07-10T01:03:04;15.40;37.90
5150;DHT22;2593;52.466;13.436;2022-07-10T01:05:31;15.50;50.20
5150;DHT22;2593;52.466;13.436;2022-07-10T01:07:56;15.50;45.00
5150;DHT22;2593;52.466;13.436;2022-07-10T01:10:22;15.40;32.30
5150;DHT22;2593;52.466;13.436;2022-07-10T01:12:48;15.40;55.70
5150;DHT22;2593;52.466;13.436;2022-07-10T01:15:13;15.50;66.50
5150;DHT22;2593;52.466;13.436;2022-07-10T01:17:39;15.40;56.50
5150;DHT22;2593;52.466;13.436;2022-07-10T01:20:09;15.50;78.80
5150;DHT22;2593;52.466;13.436;2022-07-10T01:22:36;15.50;68.70
5150;DHT22;2593;52.466;13.436;2022-07-10T01:25:02;15.50;70.90
5150;DHT22;2593;52.466;13.436;2022-07-10T01:27:28;15.50;88.20
5150;DHT22;2593;52.466;13.436;2022-07-10T01:29:54;15.50;90.50
5150;DHT22;2593;52.466;13.436;2022-07-10T01:32:19;15.50;87.40
5150;DHT22;2593;52.466;13.436;2022-07-10T01:34:45;15.50;56.20
5150;DHT22;2593;52.466;13.436;2022-07-10T01:37:12;15.40;57.30
5150;DHT22;2593;52.466;13.436;2022-07-10T01:39:38;15.40;55.80
5150;DHT22;2593;52.466;13.436;2022-07-10T01:42:04;15.40;87.30
5150;DHT22;2593;52.466;13.436;2022-07-10T01:44:29;15.40;93.80
5150;DHT22;2593;52.466;13.436;2022-07-10T01:46:55;15.40;88.40
5150;DHT22;2593;52.466;13.436;2022-07-10T01:49:20;15.40;99.90
5150;DHT22;2593;52.466;13.436;2022-07-10T01:51:46;15.40;94.30
5150;DHT22;2593;52.466;13.436;2022-07-10T01:54:12;15.40;99.90
5150;DHT22;2593;52.466;13.436;2022-07-10T01:56:37;15.40;99.90
5150;DHT22;2593;52.466;13.436;2022-07-10T01:59:03;15.40;99.90
5150;DHT22;2593;52.466;13.436;2022-07-10T02:01:30;15.30;99.90
5150;DHT22;2593;52.466;13.436;2022-07-10T02:03:55;15.30;99.90
5150;DHT22;2593;52.466;13.436;2022-07-10T02:06:39;15.30;99.90
5150;DHT22;2593;52.466;13.436;2022-07-10T02:09:05;15.20;99.90
5150;DHT22;2593;52.466;13.436;2022-07-10T02:11:30;15.20;99.90
5150;DHT22;2593;52.466;13.436;2022-07-10T02:13:56;15.20;99.90
5150;DHT22;2593;52.466;13.436;2022-07-10T02:16:21;15.20;99.90
5150;DHT22;2593;52.466;13.436;2022-07-10T02:18:47;15.20;99.90
5150;DHT22;2593;52.466;13.436;2022-07-10T02:21:13;15.20;99.90
5150;DHT22;2593;52.466;13.436;2022-07-10T02:23:38;15.20;99.90
5150;DHT22;2593;52.466;13.436;2022-07-10T02:26:06;15.20;99.90
5150;DHT22;2593;52.466;13.436;2022-07-10T02:28:32;15.20;99.90
5150;DHT22;2593;52.466;13.436;2022-07-10T02:30:58;15.20;99.90
5150;DHT22;2593;52.466;13.436;2022-07-10T02:33:24;15.20;99.90
5150;DHT22;2593;52.466;13.436;2022-07-10T02:35:50;15.20;99.90
5150;DHT22;2593;52.466;13.436;2022-07-10T02:38:16;15.20;99.90
5150;DHT22;2593;52.466;13.436;2022-07-10T02:40:41;15.20;99.90
5150;DHT22;2593;52.466;13.436;2022-07-10T02:43:07;15.20;99.90
5150;DHT22;2593;52.466;13.436;2022-07-10T02:45:32;15.20;99.90
5150;DHT22;2593;52.466;13.436;2022-07-10T02:47:58;15.10;99.90
5150;DHT22;2593;52.466;13.436;2022-07-10T02:50:24;15.10;99.90
5150;DHT22;2593;52.466;13.436;2022-07-10T02:52:49;15.00;99.90
5150;DHT22;2593;52.466;13.436;2022-07-10T02:55:15;15.00;99.90
5150;DHT22;2593;52.466;13.436;2022-07-10T02:57:40;14.90;99.90
5150;DHT22;2593;52.466;13.436;2022-07-10T03:00:06;14.90;99.90
5150;DHT22;2593;52.466;13.436;2022-07-10T03:02:32;14.90;99.90
5150;DHT22;2593;52.466;13.436;2022-07-10T03:04:58;14.90;99.90
5150;DHT22;2593;52.466;13.436;2022-07-10T03:07:23;14.90;99.90
5150;DHT22;2593;52.466;13.436;2022-07-10T03:09:49;14.90;99.90
5150;DHT22;2593;52.466;13.436;2022-07-10T03:12:14;14.90;99.90
5150;DHT22;2593;52.466;13.436;2022-07-10T03:14:40;15.00;99.90
5150;DHT22;2593;52.466;13.436;2022-07-10T03:17:06;15.00;99.90
5150;DHT22;2593;52.466;13.436;2022-07-10T03:19:31;15.00;99.90
5150;DHT22;2593;52.466;13.436;2022-07-10T03:21:59;14.90;99.90
5150;DHT22;2593;52.466;13.436;2022-07-10T03:24:24;14.90;99.90
5150;DHT22;2593;52.466;13.436;2022-07-10T03:26:50;14.90;99.90
5150;DHT22;2593;52.466;13.436;2022-07-10T03:29:15;14.80;99.90
5150;DHT22;2593;52.466;13.436;2022-07-10T03:31:41;14.80;99.90
5150;DHT22;2593;52.466;13.436;2022-07-10T03:34:07;14.80;99.90
5150;DHT22;2593;52.466;13.436;2022-07-10T03:36:32;14.80;99.90
5150;DHT22;2593;52.466;13.436;2022-07-10T03:38:58;14.80;99.90
5150;DHT22;2593;52.466;13.436;2022-07-10T03:41:23;14.80;99.90
5150;DHT22;2593;52.466;13.436;2022-07-10T03:43:49;14.80;99.90
5150;DHT22;2593;52.466;13.436;2022-07-10T03:46:14;14.80;99.90
5150;DHT22;2593;52.466;13.436;2022-07-10T03:48:40;14.80;99.90
5150;DHT22;2593;52.466;13.436;2022-07-10T03:51:05;14.90;99.90
5150;DHT22;2593;52.466;13.436;2022-07-10T03:53:31;14.80;99.90
5150;DHT22;2593;52.466;13.436;2022-07-10T03:55:56;14.80;99.90
5150;DHT22;2593;52.466;13.436;2022-07-10T03:58:22;14.70;99.90
5150;DHT22;2593;52.466;13.436;2022-07-10T04:00:47;14.70;99.90
5150;DHT22;2593;52.466;13.436;2022-07-10T04:03:13;14.70;99.90
5150;DHT22;2593;52.466;13.436;2022-07-10T04:05:39;14.80;99.90
5150;DHT22;2593;52.466;13.436;2022-07-10T04:08:05;14.80;99.90
5150;DHT22;2593;52.466;13.436;2022-07-10T04:10:31;14.80;99.90
5150;DHT22;2593;52.466;13.436;2022-07-10T04:12:57;14.80;99.90
5150;DHT22;2593;52.466;13.436;2022-07-10T04:15:23;14.90;99.90
5150;DHT22;2593;52.466;13.436;2022-07-10T04:17:49;14.90;99.90
5150;DHT22;2593;52.466;13.436;2022-07-10T04:20:15;15.00;99.90
5150;DHT22;2593;52.466;13.436;2022-07-10T04:22:41;14.90;99.90
5150;DHT22;2593;52.466;13.436;2022-07-10T04:25:08;14.90;99.90
5150;DHT22;2593;52.466;13.436;2022-07-10T04:27:33;14.90;99.90
5150;DHT22;2593;52.466;13.436;2022-07-10T04:29:59;14.90;99.90
5150;DHT22;2593;52.466;13.436;2022-07-10T04:32:25;15.00;99.90
5150;DHT22;2593;52.466;13.436;2022-07-10T04:34:51;15.00;99.90
5150;DHT22;2593;52.466;13.436;2022-07-10T04:37:16;15.00;99.90
5150;DHT22;2593;52.466;13.436;2022-07-10T04:39:42;15.00;99.90
5150;DHT22;2593;52.466;13.436;2022-07-10T04:42:08;15.00;99.90
5150;DHT22;2593;52.466;13.436;2022-07-10T04:44:34;15.00;99.90
5150;DHT22;2593;52.466;13.436;2022-07-10T04:47:01;15.00;99.90
5150;DHT22;2593;52.466;13.436;2022-07-10T04:49:27;15.10;99.90
5150;DHT22;2593;52.466;13.436;2022-07-10T04:51:54;15.00;99.90
5150;DHT22;2593;52.466;13.436;2022-07-10T04:54:20;15.00;99.90
5150;DHT22;2593;52.466;13.436;2022-07-10T04:56:45;15.10;99.90
5150;DHT22;2593;52.466;13.436;2022-07-10T04:59:11;15.20;99.90
5150;DHT22;2593;52.466;13.436;2022-07-10T05:01:36;15.30;99.90
5150;DHT22;2593;52.466;13.436;2022-07-10T05:04:05;15.20;99.90
5150;DHT22;2593;52.466;13.436;2022-07-10T05:06:30;15.20;99.90
5150;DHT22;2593;52.466;13.436;2022-07-10T05:08:56;15.30;99.90
5150;DHT22;2593;52.466;13.436;2022-07-10T05:11:22;15.40;99.90
5150;DHT22;2593;52.466;13.436;2022-07-10T05:13:48;15.50;99.90
5150;DHT22;2593;52.466;13.436;2022-07-10T05:16:15;15.50;99.90
5150;DHT22;2593;52.466;13.436;2022-07-10T05:18:41;15.50;99.90
5150;DHT22;2593;52.466;13.436;2022-07-10T05:21:07;15.60;99.90
5150;DHT22;2593;52.466;13.436;2022-07-10T05:23:33;15.60;99.90
5150;DHT22;2593;52.466;13.436;2022-07-10T05:25:59;15.60;99.90
5150;DHT22;2593;52.466;13.436;2022-07-10T05:28:24;15.60;99.90
5150;DHT22;2593;52.466;13.436;2022-07-10T05:30:50;15.60;99.90
5150;DHT22;2593;52.466;13.436;2022-07-10T05:33:16;15.60;99.90
5150;DHT22;2593;52.466;13.436;2022-07-10T05:35:41;15.50;99.90
5150;DHT22;2593;52.466;13.436;2022-07-10T05:38:07;15.50;99.90
5150;DHT22;2593;52.466;13.436;2022-07-10T05:40:33;15.50;99.90
5150;DHT22;2593;52.466;13.436;2022-07-10T05:42:58;15.50;99.90
5150;DHT22;2593;52.466;13.436;2022-07-10T05:45:24;15.50;99.90
5150;DHT22;2593;52.466;13.436;2022-07-10T05:47:50;15.60;99.90
5150;DHT22;2593;52.466;13.436;2022-07-10T05:50:16;15.60;99.90
5150;DHT22;2593;52.466;13.436;2022-07-10T05:52:41;15.70;99.90
5150;DHT22;2593;52.466;13.436;2022-07-10T05:55:08;15.70;99.90
5150;DHT22;2593;52.466;13.436;2022-07-10T05:57:34;15.70;99.90
5150;DHT22;2593;52.466;13.436;2022-07-10T06:00:00;15.70;99.90
5150;DHT22;2593;52.466;13.436;2022-07-10T06:02:25;15.70;99.90
5150;DHT22;2593;52.466;13.436;2022-07-10T06:04:51;15.80;99.90
5150;DHT22;2593;52.466;13.436;2022-07-10T06:07:17;15.70;99.90
5150;DHT22;2593;52.466;13.436;2022-07-10T06:09:42;15.70;99.90
5150;DHT22;2593;52.466;13.436;2022-07-10T06:12:08;15.80;99.90
5150;DHT22;2593;52.466;13.436;2022-07-10T06:14:34;15.90;99.90
5150;DHT22;2593;52.466;13.436;2022-07-10T06:17:00;15.90;99.90
5150;DHT22;2593;52.466;13.436;2022-07-10T06:19:25;15.90;99.90
5150;DHT22;2593;52.466;13.436;2022-07-10T06:21:51;15.90;99.90
5150;DHT22;2593;52.466;13.436;2022-07-10T06:24:36;15.90;99.90
5150;DHT22;2593;52.466;13.436;2022-07-10T06:27:02;15.90;99.90
5150;DHT22;2593;52.466;13.436;2022-07-10T06:29:28;15.80;99.90
5150;DHT22;2593;52.466;13.436;2022-07-10T06:31:53;15.90;99.90
5150;DHT22;2593;52.466;13.436;2022-07-10T06:34:19;15.90;99.90
5150;DHT22;2593;52.466;13.436;2022-07-10T06:36:45;15.90;99.20
5150;DHT22;2593;52.466;13.436;2022-07-10T06:39:11;16.00;92.50
5150;DHT22;2593;52.466;13.436;2022-07-10T06:41:36;16.00;65.90
5150;DHT22;2593;52.466;13.436;2022-07-10T06:44:02;16.20;58.80
5150;DHT22;2593;52.466;13.436;2022-07-10T06:46:28;16.20;51.40
5150;DHT22;2593;52.466;13.436;2022-07-10T06:48:54;16.30;69.20
5150;DHT22;2593;52.466;13.436;2022-07-10T06:51:20;16.30;46.00
5150;DHT22;2593;52.466;13.436;2022-07-10T06:53:45;16.50;36.80
5150;DHT22;2593;52.466;13.436;2022-07-10T06:56:11;16.60;22.00
5150;DHT22;2593;52.466;13.436;2022-07-10T06:58:39;16.70;8.80
5150;DHT22;2593;52.466;13.436;2022-07-10T07:01:04;16.70;1.00
5150;DHT22;2593;52.466;13.436;2022-07-10T07:03:30;16.80;1.00
5150;DHT22;2593;52.466;13.436;2022-07-10T07:05:55;16.80;1.00
5150;DHT22;2593;52.466;13.436;2022-07-10T07:08:21;17.00;1.00
5150;DHT22;2593;52.466;13.436;2022-07-10T07:10:46;16.90;1.00
5150;DHT22;2593;52.466;13.436;2022-07-10T07:13:12;17.00;1.00
5150;DHT22;2593;52.466;13.436;2022-07-10T07:15:38;17.10;1.00
5150;DHT22;2593;52.466;13.436;2022-07-10T07:18:07;17.10;1.00
5150;DHT22;2593;52.466;13.436;2022-07-10T07:20:34;17.30;1.00
5150;DHT22;2593;52.466;13.436;2022-07-10T07:23:19;17.20;1.00
5150;DHT22;2593;52.466;13.436;2022-07-10T07:25:45;17.40;1.00
5150;DHT22;2593;52.466;13.436;2022-07-10T07:28:17;17.50;1.00
5150;DHT22;2593;52.466;13.436;2022-07-10T07:30:44;17.70;1.00
5150;DHT22;2593;52.466;13.436;2022-07-10T07:33:10;17.70;1.00
5150;DHT22;2593;52.466;13.436;2022-07-10T07:35:36;17.80;1.00
5150;DHT22;2593;52.466;13.436;2022-07-10T07:38:02;17.80;1.00
5150;DHT22;2593;52.466;13.436;2022-07-10T07:40:29;17.80;1.00
5150;DHT22;2593;52.466;13.436;2022-07-10T07:42:55;17.80;1.00
5150;DHT22;2593;52.466;13.436;2022-07-10T07:45:22;17.90;1.00
5150;DHT22;2593;52.466;13.436;2022-07-10T07:47:58;18.10;1.00
5150;DHT22;2593;52.466;13.436;2022-07-10T07:50:33;18.30;1.00
5150;DHT22;2593;52.466;13.436;2022-07-10T07:53:00;18.60;1.00
5150;DHT22;2593;52.466;13.436;2022-07-10T07:55:26;18.70;1.00
5150;DHT22;2593;52.466;13.436;2022-07-10T07:57:53;18.90;1.00
5150;DHT22;2593;52.466;13.436;2022-07-10T08:00:19;19.10;1.00
5150;DHT22;2593;52.466;13.436;2022-07-10T08:02:48;18.90;1.00
5150;DHT22;2593;52.466;13.436;2022-07-10T08:05:14;18.80;1.00
5150;DHT22;2593;52.466;13.436;2022-07-10T08:07:42;19.10;1.00
5150;DHT22;2593;52.466;13.436;2022-07-10T08:10:11;19.20;1.00
5150;DHT22;2593;52.466;13.436;2022-07-10T08:12:37;19.60;1.00
5150;DHT22;2593;52.466;13.436;2022-07-10T08:15:07;20.00;1.00
5150;DHT22;2593;52.466;13.436;2022-07-10T08:17:33;20.40;1.00
5150;DHT22;2593;52.466;13.436;2022-07-10T08:19:59;20.30;1.00
5150;DHT22;2593;52.466;13.436;2022-07-10T08:22:24;20.00;1.00
5150;DHT22;2593;52.466;13.436;2022-07-10T08:24:50;19.70;1.00
5150;DHT22;2593;52.466;13.436;2022-07-10T08:27:15;19.50;1.00
5150;DHT22;2593;52.466;13.436;2022-07-10T08:29:41;19.30;1.00
5150;DHT22;2593;52.466;13.436;2022-07-10T08:32:07;19.00;1.00
5150;DHT22;2593;52.466;13.436;2022-07-10T08:34:35;18.90;1.00
5150;DHT22;2593;52.466;13.436;2022-07-10T08:37:00;18.60;1.00
5150;DHT22;2593;52.466;13.436;2022-07-10T08:39:26;18.40;1.00
5150;DHT22;2593;52.466;13.436;2022-07-10T08:41:52;18.40;1.00
5150;DHT22;2593;52.466;13.436;2022-07-10T08:44:18;18.40;1.00
5150;DHT22;2593;52.466;13.436;2022-07-10T08:46:47;18.60;1.00
5150;DHT22;2593;52.466;13.436;2022-07-10T08:49:12;18.60;1.00
5150;DHT22;2593;52.466;13.436;2022-07-10T08:51:52;18.70;1.00
5150;DHT22;2593;52.466;13.436;2022-07-10T08:54:20;18.80;1.00
5150;DHT22;2593;52.466;13.436;2022-07-10T08:56:47;18.90;1.00
5150;DHT22;2593;52.466;13.436;2022-07-10T08:59:14;19.00;1.00
5150;DHT22;2593;52.466;13.436;2022-07-10T09:01:40;19.40;1.00
5150;DHT22;2593;52.466;13.436;2022-07-10T09:04:05;19.70;1.00
5150;DHT22;2593;52.466;13.436;2022-07-10T09:06:31;19.90;1.00
5150;DHT22;2593;52.466;13.436;2022-07-10T09:09:04;20.10;1.00
5150;DHT22;2593;52.466;13.436;2022-07-10T09:11:31;20.10;1.00
5150;DHT22;2593;52.466;13.436;2022-07-10T09:13:59;20.10;1.00
5150;DHT22;2593;52.466;13.436;2022-07-10T09:16:27;20.10;1.00
5150;DHT22;2593;52.466;13.436;2022-07-10T09:18:53;20.00;1.00
5150;DHT22;2593;52.466;13.436;2022-07-10T09:21:20;19.70;1.00
5150;DHT22;2593;52.466;13.436;2022-07-10T09:23:46;19.50;1.00
5150;DHT22;2593;52.466;13.436;2022-07-10T09:26:12;19.30;1.00
5150;DHT22;2593;52.466;13.436;2022-07-10T09:28:38;19.30;1.00
5150;DHT22;2593;52.466;13.436;2022-07-10T09:31:04;19.30;1.00
5150;DHT22;2593;52.466;13.436;2022-07-10T09:33:31;19.50;1.00
5150;DHT22;2593;52.466;13.436;2022-07-10T09:36:00;19.80;1.00
5150;DHT22;2593;52.466;13.436;2022-07-10T09:44:04;19.70;1.00
5150;DHT22;2593;52.466;13.436;2022-07-10T09:46:31;19.50;1.00
5150;DHT22;2593;52.466;13.436;2022-07-10T09:49:14;19.60;1.00
5150;DHT22;2593;52.466;13.436;2022-07-10T09:51:42;19.80;1.00
5150;DHT22;2593;52.466;13.436;2022-07-10T09:54:09;20.00;1.00
5150;DHT22;2593;52.466;13.436;2022-07-10T09:59:09;20.20;1.00
5150;DHT22;2593;52.466;13.436;2022-07-10T10:01:36;20.10;1.00
5150;DHT22;2593;52.466;13.436;2022-07-10T10:04:04;20.00;1.00
5150;DHT22;2593;52.466;13.436;2022-07-10T10:06:30;19.80;1.00
5150;DHT22;2593;52.466;13.436;2022-07-10T10:11:40;19.40;1.00
5150;DHT22;2593;52.466;13.436;2022-07-10T10:14:07;19.30;1.00
5150;DHT22;2593;52.466;13.436;2022-07-10T10:16:33;19.40;1.00
5150;DHT22;2593;52.466;13.436;2022-07-10T10:19:02;19.70;1.00
5150;DHT22;2593;52.466;13.436;2022-07-10T10:21:46;19.70;1.00
5150;DHT22;2593;52.466;13.436;2022-07-10T10:24:13;19.60;1.00
5150;DHT22;2593;52.466;13.436;2022-07-10T10:26:39;19.50;1.00
5150;DHT22;2593;52.466;13.436;2022-07-10T10:29:06;19.60;1.00
5150;DHT22;2593;52.466;13.436;2022-07-10T10:31:32;19.80;1.00
5150;DHT22;2593;52.466;13.436;2022-07-10T10:33:59;19.90;1.00
5150;DHT22;2593;52.466;13.436;2022-07-10T10:39:18;19.90;1.00
5150;DHT22;2593;52.466;13.436;2022-07-10T10:49:20;19.70;1.00
5150;DHT22;2593;52.466;13.436;2022-07-10T10:52:02;19.70;1.00
5150;DHT22;2593;52.466;13.436;2022-07-10T10:59:57;20.00;1.00
5150;DHT22;2593;52.466;13.436;2022-07-10T11:02:31;20.10;1.00
5150;DHT22;2593;52.466;13.436;2022-07-10T11:08:01;20.30;1.00
5150;DHT22;2593;52.466;13.436;2022-07-10T11:13:10;20.40;1.00
5150;DHT22;2593;52.466;13.436;2022-07-10T11:15:47;20.30;1.00
5150;DHT22;2593;52.466;13.436;2022-07-10T11:18:19;20.30;1.00
5150;DHT22;2593;52.466;13.436;2022-07-10T11:20:49;20.20;1.00
5150;DHT22;2593;52.466;13.436;2022-07-10T11:26:04;20.10;1.00
5150;DHT22;2593;52.466;13.436;2022-07-10T11:28:55;19.80;1.00
5150;DHT22;2593;52.466;13.436;2022-07-10T11:31:24;19.80;1.00
5150;DHT22;2593;52.466;13.436;2022-07-10T11:33:53;19.80;1.00
5150;DHT22;2593;52.466;13.436;2022-07-10T11:38:47;20.10;1.00
5150;DHT22;2593;52.466;13.436;2022-07-10T11:41:20;20.30;1.00
5150;DHT22;2593;52.466;13.436;2022-07-10T11:43:58;20.50;1.00
5150;DHT22;2593;52.466;13.436;2022-07-10T11:46:26;20.40;1.00
5150;DHT22;2593;52.466;13.436;2022-07-10T11:48:53;20.20;1.00
5150;DHT22;2593;52.466;13.436;2022-07-10T11:51:34;20.20;1.00
5150;DHT22;2593;52.466;13.436;2022-07-10T11:54:05;20.20;1.00
5150;DHT22;2593;52.466;13.436;2022-07-10T11:56:35;20.20;1.00
5150;DHT22;2593;52.466;13.436;2022-07-10T11:59:06;20.30;1.00
5150;DHT22;2593;52.466;13.436;2022-07-10T12:01:35;20.50;1.00
5150;DHT22;2593;52.466;13.436;2022-07-10T12:04:02;20.60;1.00
5150;DHT22;2593;52.466;13.436;2022-07-10T12:06:29;20.50;1.00
5150;DHT22;2593;52.466;13.436;2022-07-10T12:08:55;20.60;1.00
5150;DHT22;2593;52.466;13.436;2022-07-10T12:11:22;20.70;1.00
5150;DHT22;2593;52.466;13.436;2022-07-10T12:13:50;20.70;1.00
5150;DHT22;2593;52.466;13.436;2022-07-10T12:16:16;20.70;1.00
5150;DHT22;2593;52.466;13.436;2022-07-10T12:18:43;20.60;1.00
5150;DHT22;2593;52.466;13.436;2022-07-10T12:21:09;20.40;1.00
5150;DHT22;2593;52.466;13.436;2022-07-10T12:23:35;20.30;1.00
5150;DHT22;2593;52.466;13.436;2022-07-10T12:26:04;20.20;1.00
5150;DHT22;2593;52.466;13.436;2022-07-10T12:28:51;20.40;1.00
5150;DHT22;2593;52.466;13.436;2022-07-10T12:31:24;20.40;1.00
5150;DHT22;2593;52.466;13.436;2022-07-10T12:33:54;20.50;1.00
5150;DHT22;2593;52.466;13.436;2022-07-10T12:36:23;20.50;1.00
5150;DHT22;2593;52.466;13.436;2022-07-10T12:38:57;20.60;1.00
5150;DHT22;2593;52.466;13.436;2022-07-10T12:41:24;20.60;1.00
5150;DHT22;2593;52.466;13.436;2022-07-10T12:43:51;20.80;1.00
5150;DHT22;2593;52.466;13.436;2022-07-10T12:46:21;20.80;1.00
5150;DHT22;2593;52.466;13.436;2022-07-10T12:49:06;20.80;1.00
5150;DHT22;2593;52.466;13.436;2022-07-10T12:51:36;20.90;1.00
5150;DHT22;2593;52.466;13.436;2022-07-10T12:54:07;20.80;1.00
5150;DHT22;2593;52.466;13.436;2022-07-10T12:56:34;20.90;1.00
5150;DHT22;2593;52.466;13.436;2022-07-10T12:59:02;21.00;1.00
5150;DHT22;2593;52.466;13.436;2022-07-10T13:01:50;21.20;1.00
5150;DHT22;2593;52.466;13.436;2022-07-10T13:04:21;21.20;1.00
5150;DHT22;2593;52.466;13.436;2022-07-10T13:06:48;21.00;1.00
5150;DHT22;2593;52.466;13.436;2022-07-10T13:09:24;21.00;1.00
5150;DHT22;2593;52.466;13.436;2022-07-10T13:11:53;21.00;1.00
5150;DHT22;2593;52.466;13.436;2022-07-10T13:14:20;21.20;1.00
5150;DHT22;2593;52.466;13.436;2022-07-10T13:16:46;21.20;1.00
5150;DHT22;2593;52.466;13.436;2022-07-10T13:19:12;21.20;1.00
5150;DHT22;2593;52.466;13.436;2022-07-10T13:21:38;21.00;1.00
5150;DHT22;2593;52.466;13.436;2022-07-10T13:24:04;20.90;1.00
5150;DHT22;2593;52.466;13.436;2022-07-10T13:26:30;21.00;1.00
5150;DHT22;2593;52.466;13.436;2022-07-10T13:28:57;20.80;1.00
5150;DHT22;2593;52.466;13.436;2022-07-10T13:31:23;20.90;1.00
5150;DHT22;2593;52.466;13.436;2022-07-10T13:33:48;20.80;1.00
5150;DHT22;2593;52.466;13.436;2022-07-10T13:36:14;20.70;1.00
5150;DHT22;2593;52.466;13.436;2022-07-10T13:38:40;20.70;1.00
5150;DHT22;2593;52.466;13.436;2022-07-10T13:41:08;20.60;1.00
5150;DHT22;2593;52.466;13.436;2022-07-10T13:43:33;20.60;1.00
5150;DHT22;2593;52.466;13.436;2022-07-10T13:46:01;20.60;1.00
5150;DHT22;2593;52.466;13.436;2022-07-10T13:48:28;20.80;1.00
5150;DHT22;2593;52.466;13.436;2022-07-10T13:50:53;21.00;1.00
5150;DHT22;2593;52.466;13.436;2022-07-10T13:53:19;21.00;1.00
5150;DHT22;2593;52.466;13.436;2022-07-10T13:55:46;20.80;1.00
5150;DHT22;2593;52.466;13.436;2022-07-10T13:58:12;20.70;1.00
5150;DHT22;2593;52.466;13.436;2022-07-10T14:00:39;20.80;1.00
5150;DHT22;2593;52.466;13.436;2022-07-10T14:03:05;20.60;1.00
5150;DHT22;2593;52.466;13.436;2022-07-10T14:05:31;20.70;1.00
5150;DHT22;2593;52.466;13.436;2022-07-10T14:07:58;20.80;1.00
5150;DHT22;2593;52.466;13.436;2022-07-10T14:10:24;20.80;1.00
5150;DHT22;2593;52.466;13.436;2022-07-10T14:12:55;20.80;1.00
5150;DHT22;2593;52.466;13.436;2022-07-10T14:15:21;20.90;1.00
5150;DHT22;2593;52.466;13.436;2022-07-10T14:17:47;20.90;1.00
5150;DHT22;2593;52.466;13.436;2022-07-10T14:20:13;20.80;1.00
5150;DHT22;2593;52.466;13.436;2022-07-10T14:22:38;20.70;1.00
5150;DHT22;2593;52.466;13.436;2022-07-10T14:25:05;20.70;1.00
5150;DHT22;2593;52.466;13.436;2022-07-10T14:27:31;20.60;1.00
5150;DHT22;2593;52.466;13.436;2022-07-10T14:29:58;20.70;1.00
5150;DHT22;2593;52.466;13.436;2022-07-10T14:32:23;20.60;1.00
5150;DHT22;2593;52.466;13.436;2022-07-10T14:34:49;20.30;1.00
5150;DHT22;2593;52.466;13.436;2022-07-10T14:37:15;20.20;1.00
5150;DHT22;2593;52.466;13.436;2022-07-10T14:39:40;20.00;1.00
5150;DHT22;2593;52.466;13.436;2022-07-10T14:42:06;19.90;1.00
5150;DHT22;2593;52.466;13.436;2022-07-10T14:44:33;19.80;1.00
5150;DHT22;2593;52.466;13.436;2022-07-10T14:46:58;19.70;1.00
5150;DHT22;2593;52.466;13.436;2022-07-10T14:49:24;19.60;1.00
5150;DHT22;2593;52.466;13.436;2022-07-10T14:51:49;19.60;1.00
5150;DHT22;2593;52.466;13.436;2022-07-10T14:54:15;19.80;1.00
5150;DHT22;2593;52.466;13.436;2022-07-10T14:56:41;19.80;1.00
5150;DHT22;2593;52.466;13.436;2022-07-10T14:59:08;19.80;1.00
5150;DHT22;2593;52.466;13.436;2022-07-10T15:01:34;19.70;1.00
5150;DHT22;2593;52.466;13.436;2022-07-10T15:03:59;19.60;1.00
5150;DHT22;2593;52.466;13.436;2022-07-10T15:06:26;19.70;1.00
5150;DHT22;2593;52.466;13.436;2022-07-10T15:08:52;19.60;1.00
5150;DHT22;2593;52.466;13.436;2022-07-10T15:11:18;19.60;1.00
5150;DHT22;2593;52.466;13.436;2022-07-10T15:13:47;19.70;1.00
5150;DHT22;2593;52.466;13.436;2022-07-10T15:16:13;19.60;1.00
5150;DHT22;2593;52.466;13.436;2022-07-10T15:18:39;19.50;1.00
5150;DHT22;2593;52.466;13.436;2022-07-10T15:21:04;19.70;1.00
5150;DHT22;2593;52.466;13.436;2022-07-10T15:23:30;19.60;1.00
5150;DHT22;2593;52.466;13.436;2022-07-10T15:25:55;19.60;1.00
5150;DHT22;2593;52.466;13.436;2022-07-10T15:28:21;19.50;1.00
5150;DHT22;2593;52.466;13.436;2022-07-10T15:30:46;19.70;1.00
5150;DHT22;2593;52.466;13.436;2022-07-10T15:33:12;19.70;1.00
5150;DHT22;2593;52.466;13.436;2022-07-10T15:35:38;19.70;1.00
5150;DHT22;2593;52.466;13.436;2022-07-10T15:38:03;19.70;1.00
5150;DHT22;2593;52.466;13.436;2022-07-10T15:40:29;19.80;1.00
5150;DHT22;2593;52.466;13.436;2022-07-10T15:42:55;19.80;1.00
5150;DHT22;2593;52.466;13.436;2022-07-10T15:45:27;19.90;1.00
5150;DHT22;2593;52.466;13.436;2022-07-10T15:47:53;19.80;1.00
5150;DHT22;2593;52.466;13.436;2022-07-10T15:50:19;19.90;1.00
5150;DHT22;2593;52.466;13.436;2022-07-10T15:52:45;20.00;1.00
5150;DHT22;2593;52.466;13.436;2022-07-10T15:55:11;20.00;1.00
5150;DHT22;2593;52.466;13.436;2022-07-10T15:57:37;19.90;1.00
5150;DHT22;2593;52.466;13.436;2022-07-10T16:00:05;19.80;1.00
5150;DHT22;2593;52.466;13.436;2022-07-10T16:02:31;19.80;1.00
5150;DHT22;2593;52.466;13.436;2022-07-10T16:04:57;19.80;1.00
5150;DHT22;2593;52.466;13.436;2022-07-10T16:07:22;19.80;1.00
5150;DHT22;2593;52.466;13.436;2022-07-10T16:09:48;19.80;1.00
5150;DHT22;2593;52.466;13.436;2022-07-10T16:12:15;19.80;1.00
5150;DHT22;2593;52.466;13.436;2022-07-10T16:14:40;19.70;1.00
5150;DHT22;2593;52.466;13.436;2022-07-10T16:17:06;19.80;1.00
5150;DHT22;2593;52.466;13.436;2022-07-10T16:19:32;19.70;1.00
5150;DHT22;2593;52.466;13.436;2022-07-10T16:21:57;19.70;1.00
5150;DHT22;2593;52.466;13.436;2022-07-10T16:24:24;19.70;1.00
5150;DHT22;2593;52.466;13.436;2022-07-10T16:26:50;19.80;1.00
5150;DHT22;2593;52.466;13.436;2022-07-10T16:29:16;19.80;1.00
5150;DHT22;2593;52.466;13.436;2022-07-10T16:31:42;19.80;1.00